sensor_id;sensor_type;location;lat;lon;timestamp;temperature;humidity
78694;SHT31;68029;51.978;5.646;2024-01-11T00:01:20;-0.2;49.0
78694;SHT31;68029;51.978;5.646;2024-01-11T00:03:49;-0.2;49.5
78694;SHT31;68029;51.978;5.646;2024-01-11T00:06:17;-0.2;49.4
78694;SHT31;68029;51.978;5.646;2024-01-11T00:08:46;-0.2;49.1
78694;SHT31;68029;51.978;5.646;2024-01-11T00:11:14;-0.2;48.6
78694;SHT31;68029;51.978;5.646;2024-01-11T00:13:43;-0.2;48.7
78694;SHT31;68029;51.978;5.646;2024-01-11T00:16:11;-0.2;48.7
78694;SHT31;68029;51.978;5.646;2024-01-11T00:18:39;-0.3;49.0
78694;SHT31;68029;51.978;5.646;2024-01-11T00:21:08;-0.3;49.1
78694;SHT31;68029;51.978;5.646;2024-01-11T00:23:36;-0.3;49.1
78694;SHT31;68029;51.978;5.646;2024-01-11T00:26:05;-0.4;49.2
78694;SHT31;68029;51.978;5.646;2024-01-11T00:28:34;-0.4;49.8
78694;SHT31;68029;51.978;5.646;2024-01-11T00:31:02;-0.4;50.2
78694;SHT31;68029;51.978;5.646;2024-01-11T00:33:31;-0.5;49.9
78694;SHT31;68029;51.978;5.646;2024-01-11T00:36:00;-0.5;50.9
78694;SHT31;68029;51.978;5.646;2024-01-11T00:38:28;-0.5;50.1
78694;SHT31;68029;51.978;5.646;2024-01-11T00:40:56;-0.5;49.5
78694;SHT31;68029;51.978;5.646;2024-01-11T00:43:25;-0.5;49.6
78694;SHT31;68029;51.978;5.646;2024-01-11T00:45:53;-0.5;49.5
78694;SHT31;68029;51.978;5.646;2024-01-11T00:48:22;-0.6;49.8
78694;SHT31;68029;51.978;5.646;2024-01-11T00:50:52;-0.6;49.8
78694;SHT31;68029;51.978;5.646;2024-01-11T00:53:20;-0.7;49.7
78694;SHT31;68029;51.978;5.646;2024-01-11T00:55:49;-0.7;49.7
78694;SHT31;68029;51.978;5.646;2024-01-11T00:58:17;-0.7;50.0
78694;SHT31;68029;51.978;5.646;2024-01-11T01:00:46;-0.8;50.2
78694;SHT31;68029;51.978;5.646;2024-01-11T01:03:15;-0.8;50.3
78694;SHT31;68029;51.978;5.646;2024-01-11T01:05:44;-0.8;50.5
78694;SHT31;68029;51.978;5.646;2024-01-11T01:08:12;-0.9;50.5
78694;SHT31;68029;51.978;5.646;2024-01-11T01:10:41;-0.9;50.7
78694;SHT31;68029;51.978;5.646;2024-01-11T01:13:09;-0.9;50.9
78694;SHT31;68029;51.978;5.646;2024-01-11T01:15:39;-0.9;51.2
78694;SHT31;68029;51.978;5.646;2024-01-11T01:18:08;-1.0;51.3
78694;SHT31;68029;51.978;5.646;2024-01-11T01:20:37;-1.0;51.6
78694;SHT31;68029;51.978;5.646;2024-01-11T01:23:07;-1.0;51.6
78694;SHT31;68029;51.978;5.646;2024-01-11T01:25:35;-1.0;51.7
78694;SHT31;68029;51.978;5.646;2024-01-11T01:28:05;-1.0;52.1
78694;SHT31;68029;51.978;5.646;2024-01-11T01:30:33;-1.1;51.7
78694;SHT31;68029;51.978;5.646;2024-01-11T01:33:05;-1.1;52.6
78694;SHT31;68029;51.978;5.646;2024-01-11T01:35:34;-1.1;51.9
78694;SHT31;68029;51.978;5.646;2024-01-11T01:38:03;-1.1;52.0
78694;SHT31;68029;51.978;5.646;2024-01-11T01:40:32;-1.1;51.9
78694;SHT31;68029;51.978;5.646;2024-01-11T01:43:00;-1.1;52.1
78694;SHT31;68029;51.978;5.646;2024-01-11T01:45:30;-1.1;52.7
78694;SHT31;68029;51.978;5.646;2024-01-11T01:47:59;-1.2;52.2
78694;SHT31;68029;51.978;5.646;2024-01-11T01:50:28;-1.2;52.2
78694;SHT31;68029;51.978;5.646;2024-01-11T01:52:58;-1.2;52.3
78694;SHT31;68029;51.978;5.646;2024-01-11T01:55:31;-1.2;52.6
78694;SHT31;68029;51.978;5.646;2024-01-11T01:58:00;-1.2;52.5
78694;SHT31;68029;51.978;5.646;2024-01-11T02:00:29;-1.3;52.5
78694;SHT31;68029;51.978;5.646;2024-01-11T02:02:58;-1.3;52.7
78694;SHT31;68029;51.978;5.646;2024-01-11T02:05:27;-1.3;53.0
78694;SHT31;68029;51.978;5.646;2024-01-11T02:07:57;-1.4;53.1
78694;SHT31;68029;51.978;5.646;2024-01-11T02:10:30;-1.4;53.4
78694;SHT31;68029;51.978;5.646;2024-01-11T02:13:02;-1.4;53.6
78694;SHT31;68029;51.978;5.646;2024-01-11T02:15:32;-1.5;53.6
78694;SHT31;68029;51.978;5.646;2024-01-11T02:18:01;-1.5;53.7
78694;SHT31;68029;51.978;5.646;2024-01-11T02:20:30;-1.5;53.7
78694;SHT31;68029;51.978;5.646;2024-01-11T02:23:08;-1.5;53.8
78694;SHT31;68029;51.978;5.646;2024-01-11T02:25:39;-1.5;53.9
78694;SHT31;68029;51.978;5.646;2024-01-11T02:28:07;-1.5;54.1
78694;SHT31;68029;51.978;5.646;2024-01-11T02:30:38;-1.5;54.0
78694;SHT31;68029;51.978;5.646;2024-01-11T02:33:07;-1.5;54.5
78694;SHT31;68029;51.978;5.646;2024-01-11T02:35:38;-1.6;54.3
78694;SHT31;68029;51.978;5.646;2024-01-11T02:38:11;-1.6;54.4
78694;SHT31;68029;51.978;5.646;2024-01-11T02:40:40;-1.6;54.4
78694;SHT31;68029;51.978;5.646;2024-01-11T02:43:10;-1.6;54.8
78694;SHT31;68029;51.978;5.646;2024-01-11T02:45:39;-1.7;54.9
78694;SHT31;68029;51.978;5.646;2024-01-11T02:48:07;-1.7;54.9
78694;SHT31;68029;51.978;5.646;2024-01-11T02:50:38;-1.7;55.0
78694;SHT31;68029;51.978;5.646;2024-01-11T02:53:06;-1.7;55.3
78694;SHT31;68029;51.978;5.646;2024-01-11T02:55:34;-1.8;55.5
78694;SHT31;68029;51.978;5.646;2024-01-11T02:58:03;-1.8;55.6
78694;SHT31;68029;51.978;5.646;2024-01-11T03:00:31;-1.8;55.5
78694;SHT31;68029;51.978;5.646;2024-01-11T03:03:00;-1.8;55.7
78694;SHT31;68029;51.978;5.646;2024-01-11T03:05:28;-1.8;55.9
78694;SHT31;68029;51.978;5.646;2024-01-11T03:07:57;-1.8;56.1
78694;SHT31;68029;51.978;5.646;2024-01-11T03:10:25;-1.8;56.5
78694;SHT31;68029;51.978;5.646;2024-01-11T03:12:55;-1.8;55.9
78694;SHT31;68029;51.978;5.646;2024-01-11T03:15:26;-1.8;56.2
78694;SHT31;68029;51.978;5.646;2024-01-11T03:17:54;-1.7;55.9
78694;SHT31;68029;51.978;5.646;2024-01-11T03:20:23;-1.7;55.8
78694;SHT31;68029;51.978;5.646;2024-01-11T03:22:51;-1.7;55.7
78694;SHT31;68029;51.978;5.646;2024-01-11T03:25:20;-1.7;55.5
78694;SHT31;68029;51.978;5.646;2024-01-11T03:27:48;-1.8;55.4
78694;SHT31;68029;51.978;5.646;2024-01-11T03:30:17;-1.8;55.5
78694;SHT31;68029;51.978;5.646;2024-01-11T03:32:46;-1.8;55.6
78694;SHT31;68029;51.978;5.646;2024-01-11T03:35:14;-1.8;55.7
78694;SHT31;68029;51.978;5.646;2024-01-11T03:37:43;-1.9;55.7
78694;SHT31;68029;51.978;5.646;2024-01-11T03:40:12;-1.9;56.3
78694;SHT31;68029;51.978;5.646;2024-01-11T03:42:41;-1.9;56.4
78694;SHT31;68029;51.978;5.646;2024-01-11T03:45:11;-1.9;56.4
78694;SHT31;68029;51.978;5.646;2024-01-11T03:47:39;-1.9;56.4
78694;SHT31;68029;51.978;5.646;2024-01-11T03:50:09;-1.9;56.4
78694;SHT31;68029;51.978;5.646;2024-01-11T03:52:39;-1.9;56.5
78694;SHT31;68029;51.978;5.646;2024-01-11T03:55:08;-1.9;57.3
78694;SHT31;68029;51.978;5.646;2024-01-11T03:57:37;-1.9;57.0
78694;SHT31;68029;51.978;5.646;2024-01-11T04:00:06;-1.9;56.5
78694;SHT31;68029;51.978;5.646;2024-01-11T04:02:35;-1.9;56.8
78694;SHT31;68029;51.978;5.646;2024-01-11T04:05:05;-1.9;57.2
78694;SHT31;68029;51.978;5.646;2024-01-11T04:07:34;-1.9;57.5
78694;SHT31;68029;51.978;5.646;2024-01-11T04:10:02;-1.9;57.3
78694;SHT31;68029;51.978;5.646;2024-01-11T04:12:33;-1.9;56.4
78694;SHT31;68029;51.978;5.646;2024-01-11T04:15:02;-1.9;56.3
78694;SHT31;68029;51.978;5.646;2024-01-11T04:17:30;-2.0;56.5
78694;SHT31;68029;51.978;5.646;2024-01-11T04:19:59;-2.0;57.2
78694;SHT31;68029;51.978;5.646;2024-01-11T04:22:31;-2.0;57.1
78694;SHT31;68029;51.978;5.646;2024-01-11T04:25:00;-2.0;57.3
78694;SHT31;68029;51.978;5.646;2024-01-11T04:27:29;-2.0;57.6
78694;SHT31;68029;51.978;5.646;2024-01-11T04:29:57;-2.0;57.5
78694;SHT31;68029;51.978;5.646;2024-01-11T04:32:26;-2.1;57.6
78694;SHT31;68029;51.978;5.646;2024-01-11T04:34:54;-2.1;57.7
78694;SHT31;68029;51.978;5.646;2024-01-11T04:37:25;-2.1;57.3
78694;SHT31;68029;51.978;5.646;2024-01-11T04:39:53;-2.0;57.2
78694;SHT31;68029;51.978;5.646;2024-01-11T04:42:26;-2.1;57.0
78694;SHT31;68029;51.978;5.646;2024-01-11T04:44:55;-2.1;57.4
78694;SHT31;68029;51.978;5.646;2024-01-11T04:47:23;-2.1;57.4
78694;SHT31;68029;51.978;5.646;2024-01-11T04:49:52;-2.1;57.6
78694;SHT31;68029;51.978;5.646;2024-01-11T04:52:20;-2.1;57.7
78694;SHT31;68029;51.978;5.646;2024-01-11T04:54:48;-2.2;57.8
78694;SHT31;68029;51.978;5.646;2024-01-11T04:57:17;-2.2;58.0
78694;SHT31;68029;51.978;5.646;2024-01-11T04:59:45;-2.2;58.2
78694;SHT31;68029;51.978;5.646;2024-01-11T05:02:14;-2.2;58.5
78694;SHT31;68029;51.978;5.646;2024-01-11T05:04:42;-2.2;58.5
78694;SHT31;68029;51.978;5.646;2024-01-11T05:07:10;-2.3;58.4
78694;SHT31;68029;51.978;5.646;2024-01-11T05:09:39;-2.3;58.6
78694;SHT31;68029;51.978;5.646;2024-01-11T05:12:10;-2.3;58.9
78694;SHT31;68029;51.978;5.646;2024-01-11T05:14:39;-2.3;58.7
78694;SHT31;68029;51.978;5.646;2024-01-11T05:17:07;-2.3;58.7
78694;SHT31;68029;51.978;5.646;2024-01-11T05:19:36;-2.3;58.9
78694;SHT31;68029;51.978;5.646;2024-01-11T05:22:05;-2.3;58.6
78694;SHT31;68029;51.978;5.646;2024-01-11T05:24:33;-2.3;58.8
78694;SHT31;68029;51.978;5.646;2024-01-11T05:27:02;-2.3;58.8
78694;SHT31;68029;51.978;5.646;2024-01-11T05:29:30;-2.3;59.0
78694;SHT31;68029;51.978;5.646;2024-01-11T05:31:58;-2.3;58.7
78694;SHT31;68029;51.978;5.646;2024-01-11T05:34:27;-2.3;58.6
78694;SHT31;68029;51.978;5.646;2024-01-11T05:36:55;-2.3;59.2
78694;SHT31;68029;51.978;5.646;2024-01-11T05:39:24;-2.3;59.1
78694;SHT31;68029;51.978;5.646;2024-01-11T05:41:52;-2.3;59.3
78694;SHT31;68029;51.978;5.646;2024-01-11T05:44:21;-2.3;58.9
78694;SHT31;68029;51.978;5.646;2024-01-11T05:46:49;-2.3;59.2
78694;SHT31;68029;51.978;5.646;2024-01-11T05:49:18;-2.3;59.3
78694;SHT31;68029;51.978;5.646;2024-01-11T05:51:46;-2.3;59.4
78694;SHT31;68029;51.978;5.646;2024-01-11T05:54:14;-2.3;59.2
78694;SHT31;68029;51.978;5.646;2024-01-11T05:56:43;-2.3;59.1
78694;SHT31;68029;51.978;5.646;2024-01-11T05:59:11;-2.3;59.4
78694;SHT31;68029;51.978;5.646;2024-01-11T06:01:43;-2.3;59.2
78694;SHT31;68029;51.978;5.646;2024-01-11T06:04:12;-2.3;59.4
78694;SHT31;68029;51.978;5.646;2024-01-11T06:06:41;-2.3;59.1
78694;SHT31;68029;51.978;5.646;2024-01-11T06:09:10;-2.3;58.8
78694;SHT31;68029;51.978;5.646;2024-01-11T06:11:38;-2.3;59.4
78694;SHT31;68029;51.978;5.646;2024-01-11T06:14:06;-2.3;59.6
78694;SHT31;68029;51.978;5.646;2024-01-11T06:16:35;-2.3;58.8
78694;SHT31;68029;51.978;5.646;2024-01-11T06:19:03;-2.3;58.7
78694;SHT31;68029;51.978;5.646;2024-01-11T06:21:33;-2.3;58.8
78694;SHT31;68029;51.978;5.646;2024-01-11T06:24:03;-2.3;59.2
78694;SHT31;68029;51.978;5.646;2024-01-11T06:26:31;-2.3;59.4
78694;SHT31;68029;51.978;5.646;2024-01-11T06:29:00;-2.3;59.7
78694;SHT31;68029;51.978;5.646;2024-01-11T06:31:28;-2.3;59.3
78694;SHT31;68029;51.978;5.646;2024-01-11T06:33:57;-2.3;59.1
78694;SHT31;68029;51.978;5.646;2024-01-11T06:36:25;-2.3;59.4
78694;SHT31;68029;51.978;5.646;2024-01-11T06:38:54;-2.4;59.5
78694;SHT31;68029;51.978;5.646;2024-01-11T06:41:23;-2.4;59.7
78694;SHT31;68029;51.978;5.646;2024-01-11T06:43:51;-2.4;60.4
78694;SHT31;68029;51.978;5.646;2024-01-11T06:46:21;-2.4;60.2
78694;SHT31;68029;51.978;5.646;2024-01-11T06:48:50;-2.4;59.9
78694;SHT31;68029;51.978;5.646;2024-01-11T06:51:21;-2.4;60.3
78694;SHT31;68029;51.978;5.646;2024-01-11T06:53:50;-2.4;60.3
78694;SHT31;68029;51.978;5.646;2024-01-11T06:56:19;-2.4;60.4
78694;SHT31;68029;51.978;5.646;2024-01-11T06:58:48;-2.4;59.8
78694;SHT31;68029;51.978;5.646;2024-01-11T07:01:19;-2.4;59.5
78694;SHT31;68029;51.978;5.646;2024-01-11T07:03:48;-2.4;59.7
78694;SHT31;68029;51.978;5.646;2024-01-11T07:06:16;-2.4;59.8
78694;SHT31;68029;51.978;5.646;2024-01-11T07:08:45;-2.5;60.0
78694;SHT31;68029;51.978;5.646;2024-01-11T07:11:13;-2.5;59.7
78694;SHT31;68029;51.978;5.646;2024-01-11T07:13:42;-2.5;60.0
78694;SHT31;68029;51.978;5.646;2024-01-11T07:16:13;-2.5;59.9
78694;SHT31;68029;51.978;5.646;2024-01-11T07:18:41;-2.5;60.1
78694;SHT31;68029;51.978;5.646;2024-01-11T07:21:11;-2.6;60.8
78694;SHT31;68029;51.978;5.646;2024-01-11T07:23:40;-2.6;60.7
78694;SHT31;68029;51.978;5.646;2024-01-11T07:26:08;-2.6;60.6
78694;SHT31;68029;51.978;5.646;2024-01-11T07:28:37;-2.6;60.9
78694;SHT31;68029;51.978;5.646;2024-01-11T07:31:05;-2.6;60.8
78694;SHT31;68029;51.978;5.646;2024-01-11T07:33:34;-2.6;60.8
78694;SHT31;68029;51.978;5.646;2024-01-11T07:36:03;-2.6;60.8
78694;SHT31;68029;51.978;5.646;2024-01-11T07:38:31;-2.6;60.8
78694;SHT31;68029;51.978;5.646;2024-01-11T07:41:00;-2.6;60.6
78694;SHT31;68029;51.978;5.646;2024-01-11T07:43:29;-2.6;61.0
78694;SHT31;68029;51.978;5.646;2024-01-11T07:46:01;-2.6;61.4
78694;SHT31;68029;51.978;5.646;2024-01-11T07:48:31;-2.6;60.8
78694;SHT31;68029;51.978;5.646;2024-01-11T07:51:01;-2.6;60.6
78694;SHT31;68029;51.978;5.646;2024-01-11T07:53:29;-2.6;60.6
78694;SHT31;68029;51.978;5.646;2024-01-11T07:55:58;-2.6;60.8
78694;SHT31;68029;51.978;5.646;2024-01-11T07:58:27;-2.6;60.7
78694;SHT31;68029;51.978;5.646;2024-01-11T08:00:56;-2.6;60.8
78694;SHT31;68029;51.978;5.646;2024-01-11T08:03:24;-2.6;61.2
78694;SHT31;68029;51.978;5.646;2024-01-11T08:05:54;-2.6;61.3
78694;SHT31;68029;51.978;5.646;2024-01-11T08:08:22;-2.6;61.9
78694;SHT31;68029;51.978;5.646;2024-01-11T08:10:51;-2.6;61.5
78694;SHT31;68029;51.978;5.646;2024-01-11T08:13:19;-2.5;61.5
78694;SHT31;68029;51.978;5.646;2024-01-11T08:15:49;-2.5;61.8
78694;SHT31;68029;51.978;5.646;2024-01-11T08:18:20;-2.5;61.5
78694;SHT31;68029;51.978;5.646;2024-01-11T08:20:48;-2.5;61.4
78694;SHT31;68029;51.978;5.646;2024-01-11T08:23:17;-2.5;61.5
78694;SHT31;68029;51.978;5.646;2024-01-11T08:25:45;-2.5;61.7
78694;SHT31;68029;51.978;5.646;2024-01-11T08:28:14;-2.5;61.9
78694;SHT31;68029;51.978;5.646;2024-01-11T08:30:43;-2.5;62.5
78694;SHT31;68029;51.978;5.646;2024-01-11T08:33:12;-2.5;61.9
78694;SHT31;68029;51.978;5.646;2024-01-11T08:35:41;-2.5;61.9
78694;SHT31;68029;51.978;5.646;2024-01-11T08:38:09;-2.4;62.4
78694;SHT31;68029;51.978;5.646;2024-01-11T08:40:38;-2.4;62.2
78694;SHT31;68029;51.978;5.646;2024-01-11T08:43:07;-2.4;62.2
78694;SHT31;68029;51.978;5.646;2024-01-11T08:45:36;-2.4;62.3
78694;SHT31;68029;51.978;5.646;2024-01-11T08:48:05;-2.4;62.4
78694;SHT31;68029;51.978;5.646;2024-01-11T08:50:35;-2.4;62.5
78694;SHT31;68029;51.978;5.646;2024-01-11T08:53:04;-2.4;62.7
78694;SHT31;68029;51.978;5.646;2024-01-11T08:55:33;-2.4;62.8
78694;SHT31;68029;51.978;5.646;2024-01-11T08:58:01;-2.3;63.0
78694;SHT31;68029;51.978;5.646;2024-01-11T09:00:30;-2.3;62.8
78694;SHT31;68029;51.978;5.646;2024-01-11T09:03:00;-2.3;62.5
78694;SHT31;68029;51.978;5.646;2024-01-11T09:05:29;-2.3;62.7
78694;SHT31;68029;51.978;5.646;2024-01-11T09:07:58;-2.2;62.6
78694;SHT31;68029;51.978;5.646;2024-01-11T09:10:26;-2.2;62.8
78694;SHT31;68029;51.978;5.646;2024-01-11T09:12:55;-2.2;62.3
78694;SHT31;68029;51.978;5.646;2024-01-11T09:15:24;-2.1;62.4
78694;SHT31;68029;51.978;5.646;2024-01-11T09:17:52;-2.1;62.3
78694;SHT31;68029;51.978;5.646;2024-01-11T09:20:20;-2.0;63.0
78694;SHT31;68029;51.978;5.646;2024-01-11T09:22:49;-1.9;62.7
78694;SHT31;68029;51.978;5.646;2024-01-11T09:25:17;-1.8;62.6
78694;SHT31;68029;51.978;5.646;2024-01-11T09:27:46;-1.7;62.1
78694;SHT31;68029;51.978;5.646;2024-01-11T09:30:16;-1.6;61.7
78694;SHT31;68029;51.978;5.646;2024-01-11T09:32:45;-1.4;61.5
78694;SHT31;68029;51.978;5.646;2024-01-11T09:35:14;-1.3;61.5
78694;SHT31;68029;51.978;5.646;2024-01-11T09:37:43;-1.1;60.9
78694;SHT31;68029;51.978;5.646;2024-01-11T09:40:13;-1.0;60.4
78694;SHT31;68029;51.978;5.646;2024-01-11T09:42:44;-0.8;59.8
78694;SHT31;68029;51.978;5.646;2024-01-11T09:45:15;-0.6;59.5
78694;SHT31;68029;51.978;5.646;2024-01-11T09:47:45;-0.4;58.8
78694;SHT31;68029;51.978;5.646;2024-01-11T09:50:16;-0.2;58.0
78694;SHT31;68029;51.978;5.646;2024-01-11T09:52:48;-0.1;58.1
78694;SHT31;68029;51.978;5.646;2024-01-11T09:55:18;0.1;57.6
78694;SHT31;68029;51.978;5.646;2024-01-11T09:57:48;0.3;56.8
78694;SHT31;68029;51.978;5.646;2024-01-11T10:00:23;0.5;57.0
78694;SHT31;68029;51.978;5.646;2024-01-11T10:02:52;0.6;56.6
78694;SHT31;68029;51.978;5.646;2024-01-11T10:05:21;0.8;56.6
78694;SHT31;68029;51.978;5.646;2024-01-11T10:07:49;1.0;56.1
78694;SHT31;68029;51.978;5.646;2024-01-11T10:10:19;1.1;55.5
78694;SHT31;68029;51.978;5.646;2024-01-11T10:12:49;1.3;55.5
78694;SHT31;68029;51.978;5.646;2024-01-11T10:15:17;1.5;55.4
78694;SHT31;68029;51.978;5.646;2024-01-11T10:17:46;1.7;54.8
78694;SHT31;68029;51.978;5.646;2024-01-11T10:20:17;2.0;54.7
78694;SHT31;68029;51.978;5.646;2024-01-11T10:22:50;2.2;54.5
78694;SHT31;68029;51.978;5.646;2024-01-11T10:25:19;2.4;54.0
78694;SHT31;68029;51.978;5.646;2024-01-11T10:27:48;2.5;53.4
78694;SHT31;68029;51.978;5.646;2024-01-11T10:30:17;2.7;53.4
78694;SHT31;68029;51.978;5.646;2024-01-11T10:32:47;2.8;53.0
78694;SHT31;68029;51.978;5.646;2024-01-11T10:35:16;2.9;52.8
78694;SHT31;68029;51.978;5.646;2024-01-11T10:37:45;3.0;53.8
78694;SHT31;68029;51.978;5.646;2024-01-11T10:40:20;3.1;53.2
78694;SHT31;68029;51.978;5.646;2024-01-11T10:42:52;3.2;53.3
78694;SHT31;68029;51.978;5.646;2024-01-11T10:45:21;3.3;53.8
78694;SHT31;68029;51.978;5.646;2024-01-11T10:48:00;3.3;54.1
78694;SHT31;68029;51.978;5.646;2024-01-11T10:50:35;3.5;54.5
78694;SHT31;68029;51.978;5.646;2024-01-11T10:53:16;3.6;54.9
78694;SHT31;68029;51.978;5.646;2024-01-11T10:55:49;3.7;54.6
78694;SHT31;68029;51.978;5.646;2024-01-11T10:58:19;3.8;55.5
78694;SHT31;68029;51.978;5.646;2024-01-11T11:00:50;3.8;55.5
78694;SHT31;68029;51.978;5.646;2024-01-11T11:03:20;3.9;55.6
78694;SHT31;68029;51.978;5.646;2024-01-11T11:05:53;3.9;55.6
78694;SHT31;68029;51.978;5.646;2024-01-11T11:08:23;3.9;56.0
78694;SHT31;68029;51.978;5.646;2024-01-11T11:10:55;3.8;56.5
78694;SHT31;68029;51.978;5.646;2024-01-11T11:13:25;3.8;57.1
78694;SHT31;68029;51.978;5.646;2024-01-11T11:15:54;3.7;57.7
78694;SHT31;68029;51.978;5.646;2024-01-11T11:18:24;3.6;58.2
78694;SHT31;68029;51.978;5.646;2024-01-11T11:20:53;3.5;59.0
78694;SHT31;68029;51.978;5.646;2024-01-11T11:23:22;3.5;59.7
78694;SHT31;68029;51.978;5.646;2024-01-11T11:25:54;3.4;60.0
78694;SHT31;68029;51.978;5.646;2024-01-11T11:28:24;3.4;60.5
78694;SHT31;68029;51.978;5.646;2024-01-11T11:30:54;3.3;61.0
78694;SHT31;68029;51.978;5.646;2024-01-11T11:33:25;3.2;61.8
78694;SHT31;68029;51.978;5.646;2024-01-11T11:35:57;3.2;62.3
78694;SHT31;68029;51.978;5.646;2024-01-11T11:38:27;3.1;62.9
78694;SHT31;68029;51.978;5.646;2024-01-11T11:40:59;3.1;63.2
78694;SHT31;68029;51.978;5.646;2024-01-11T11:43:29;3.1;63.5
78694;SHT31;68029;51.978;5.646;2024-01-11T11:46:01;3.0;63.7
78694;SHT31;68029;51.978;5.646;2024-01-11T11:48:53;3.0;64.0
78694;SHT31;68029;51.978;5.646;2024-01-11T11:51:23;3.0;64.2
78694;SHT31;68029;51.978;5.646;2024-01-11T11:53:52;3.0;64.4
78694;SHT31;68029;51.978;5.646;2024-01-11T11:56:22;3.1;64.4
78694;SHT31;68029;51.978;5.646;2024-01-11T11:58:52;3.1;64.6
78694;SHT31;68029;51.978;5.646;2024-01-11T12:01:22;3.1;64.7
78694;SHT31;68029;51.978;5.646;2024-01-11T12:03:52;3.1;64.8
78694;SHT31;68029;51.978;5.646;2024-01-11T12:06:21;3.1;65.0
78694;SHT31;68029;51.978;5.646;2024-01-11T12:08:54;3.1;65.1
78694;SHT31;68029;51.978;5.646;2024-01-11T12:11:25;3.2;65.0
78694;SHT31;68029;51.978;5.646;2024-01-11T12:13:55;3.2;65.0
78694;SHT31;68029;51.978;5.646;2024-01-11T12:16:24;3.2;65.2
78694;SHT31;68029;51.978;5.646;2024-01-11T12:18:53;3.3;65.1
78694;SHT31;68029;51.978;5.646;2024-01-11T12:21:23;3.3;65.1
78694;SHT31;68029;51.978;5.646;2024-01-11T12:23:53;3.3;65.2
78694;SHT31;68029;51.978;5.646;2024-01-11T12:26:22;3.3;65.0
78694;SHT31;68029;51.978;5.646;2024-01-11T12:28:50;3.4;65.0
78694;SHT31;68029;51.978;5.646;2024-01-11T12:31:22;3.4;65.2
78694;SHT31;68029;51.978;5.646;2024-01-11T12:33:52;3.4;65.0
78694;SHT31;68029;51.978;5.646;2024-01-11T12:36:21;3.5;65.1
78694;SHT31;68029;51.978;5.646;2024-01-11T12:38:52;3.5;65.1
78694;SHT31;68029;51.978;5.646;2024-01-11T12:41:21;3.5;64.9
78694;SHT31;68029;51.978;5.646;2024-01-11T12:43:51;3.6;64.9
78694;SHT31;68029;51.978;5.646;2024-01-11T12:46:21;3.6;64.8
78694;SHT31;68029;51.978;5.646;2024-01-11T12:48:51;3.7;64.6
78694;SHT31;68029;51.978;5.646;2024-01-11T12:51:21;3.7;64.7
78694;SHT31;68029;51.978;5.646;2024-01-11T12:53:51;3.7;64.6
78694;SHT31;68029;51.978;5.646;2024-01-11T12:56:21;3.8;64.6
78694;SHT31;68029;51.978;5.646;2024-01-11T12:58:51;3.8;64.5
78694;SHT31;68029;51.978;5.646;2024-01-11T13:01:20;3.8;64.3
78694;SHT31;68029;51.978;5.646;2024-01-11T13:03:48;3.8;64.4
78694;SHT31;68029;51.978;5.646;2024-01-11T13:06:17;3.9;64.3
78694;SHT31;68029;51.978;5.646;2024-01-11T13:08:47;3.9;64.2
78694;SHT31;68029;51.978;5.646;2024-01-11T13:11:15;3.9;64.4
78694;SHT31;68029;51.978;5.646;2024-01-11T13:13:47;3.9;64.4
78694;SHT31;68029;51.978;5.646;2024-01-11T13:16:17;3.9;64.5
78694;SHT31;68029;51.978;5.646;2024-01-11T13:18:46;3.9;64.6
78694;SHT31;68029;51.978;5.646;2024-01-11T13:21:15;3.9;64.4
78694;SHT31;68029;51.978;5.646;2024-01-11T13:23:43;3.9;64.5
78694;SHT31;68029;51.978;5.646;2024-01-11T13:26:12;3.9;64.6
78694;SHT31;68029;51.978;5.646;2024-01-11T13:28:41;4.0;64.4
78694;SHT31;68029;51.978;5.646;2024-01-11T13:31:10;4.0;64.4
78694;SHT31;68029;51.978;5.646;2024-01-11T13:33:39;4.0;64.5
78694;SHT31;68029;51.978;5.646;2024-01-11T13:36:08;4.0;64.5
78694;SHT31;68029;51.978;5.646;2024-01-11T13:38:38;4.0;64.6
78694;SHT31;68029;51.978;5.646;2024-01-11T13:41:07;4.0;64.8
78694;SHT31;68029;51.978;5.646;2024-01-11T13:43:36;4.0;64.7
78694;SHT31;68029;51.978;5.646;2024-01-11T13:46:05;4.0;64.8
78694;SHT31;68029;51.978;5.646;2024-01-11T13:48:36;4.0;65.0
78694;SHT31;68029;51.978;5.646;2024-01-11T13:51:05;4.0;64.9
78694;SHT31;68029;51.978;5.646;2024-01-11T13:53:37;4.0;64.9
78694;SHT31;68029;51.978;5.646;2024-01-11T13:56:06;4.0;64.9
78694;SHT31;68029;51.978;5.646;2024-01-11T13:58:35;4.0;65.1
78694;SHT31;68029;51.978;5.646;2024-01-11T14:01:04;4.0;65.2
78694;SHT31;68029;51.978;5.646;2024-01-11T14:03:34;3.9;65.3
78694;SHT31;68029;51.978;5.646;2024-01-11T14:06:02;3.9;65.6
78694;SHT31;68029;51.978;5.646;2024-01-11T14:08:31;3.9;65.4
78694;SHT31;68029;51.978;5.646;2024-01-11T14:11:00;3.9;65.6
78694;SHT31;68029;51.978;5.646;2024-01-11T14:13:28;3.9;65.9
78694;SHT31;68029;51.978;5.646;2024-01-11T14:15:57;3.9;65.8
78694;SHT31;68029;51.978;5.646;2024-01-11T14:18:26;3.9;66.2
78694;SHT31;68029;51.978;5.646;2024-01-11T14:20:55;3.9;66.5
78694;SHT31;68029;51.978;5.646;2024-01-11T14:23:23;3.9;66.6
78694;SHT31;68029;51.978;5.646;2024-01-11T14:25:51;3.8;66.6
78694;SHT31;68029;51.978;5.646;2024-01-11T14:28:22;3.8;66.8
78694;SHT31;68029;51.978;5.646;2024-01-11T14:30:50;3.8;66.8
78694;SHT31;68029;51.978;5.646;2024-01-11T14:33:18;3.8;67.0
78694;SHT31;68029;51.978;5.646;2024-01-11T14:35:47;3.8;66.9
78694;SHT31;68029;51.978;5.646;2024-01-11T14:38:15;3.8;66.9
78694;SHT31;68029;51.978;5.646;2024-01-11T14:40:43;3.7;67.0
78694;SHT31;68029;51.978;5.646;2024-01-11T14:43:13;3.7;67.0
78694;SHT31;68029;51.978;5.646;2024-01-11T14:45:42;3.7;67.2
78694;SHT31;68029;51.978;5.646;2024-01-11T14:48:11;3.7;67.4
78694;SHT31;68029;51.978;5.646;2024-01-11T14:50:39;3.7;67.5
78694;SHT31;68029;51.978;5.646;2024-01-11T14:53:08;3.7;67.6
78694;SHT31;68029;51.978;5.646;2024-01-11T14:55:37;3.7;67.6
78694;SHT31;68029;51.978;5.646;2024-01-11T14:58:05;3.7;67.7
78694;SHT31;68029;51.978;5.646;2024-01-11T15:00:36;3.7;67.7
78694;SHT31;68029;51.978;5.646;2024-01-11T15:03:05;3.7;67.7
78694;SHT31;68029;51.978;5.646;2024-01-11T15:05:33;3.7;67.9
78694;SHT31;68029;51.978;5.646;2024-01-11T15:08:03;3.7;67.9
78694;SHT31;68029;51.978;5.646;2024-01-11T15:10:32;3.7;67.8
78694;SHT31;68029;51.978;5.646;2024-01-11T15:13:00;3.7;68.0
78694;SHT31;68029;51.978;5.646;2024-01-11T15:15:28;3.7;68.0
78694;SHT31;68029;51.978;5.646;2024-01-11T15:17:58;3.7;68.1
78694;SHT31;68029;51.978;5.646;2024-01-11T15:20:26;3.8;68.0
78694;SHT31;68029;51.978;5.646;2024-01-11T15:22:54;3.8;67.9
78694;SHT31;68029;51.978;5.646;2024-01-11T15:25:23;3.8;68.0
78694;SHT31;68029;51.978;5.646;2024-01-11T15:27:53;3.8;68.0
78694;SHT31;68029;51.978;5.646;2024-01-11T15:30:24;3.9;68.0
78694;SHT31;68029;51.978;5.646;2024-01-11T15:32:53;3.9;68.0
78694;SHT31;68029;51.978;5.646;2024-01-11T15:35:23;3.9;67.8
78694;SHT31;68029;51.978;5.646;2024-01-11T15:37:51;3.9;68.2
78694;SHT31;68029;51.978;5.646;2024-01-11T15:40:20;3.9;68.2
78694;SHT31;68029;51.978;5.646;2024-01-11T15:42:48;3.9;68.2
78694;SHT31;68029;51.978;5.646;2024-01-11T15:45:17;4.0;68.2
78694;SHT31;68029;51.978;5.646;2024-01-11T15:47:46;4.0;68.3
78694;SHT31;68029;51.978;5.646;2024-01-11T15:50:15;4.0;68.1
78694;SHT31;68029;51.978;5.646;2024-01-11T15:52:43;4.0;68.2
78694;SHT31;68029;51.978;5.646;2024-01-11T15:55:12;4.0;68.1
78694;SHT31;68029;51.978;5.646;2024-01-11T15:57:40;4.0;68.3
78694;SHT31;68029;51.978;5.646;2024-01-11T16:00:10;4.0;68.4
78694;SHT31;68029;51.978;5.646;2024-01-11T16:02:38;4.0;68.5
78694;SHT31;68029;51.978;5.646;2024-01-11T16:05:09;4.0;68.6
78694;SHT31;68029;51.978;5.646;2024-01-11T16:07:38;3.9;69.1
78694;SHT31;68029;51.978;5.646;2024-01-11T16:10:08;3.9;69.1
78694;SHT31;68029;51.978;5.646;2024-01-11T16:12:38;3.9;68.9
78694;SHT31;68029;51.978;5.646;2024-01-11T16:15:08;3.9;69.1
78694;SHT31;68029;51.978;5.646;2024-01-11T16:17:38;3.9;69.1
78694;SHT31;68029;51.978;5.646;2024-01-11T16:20:08;3.9;69.4